createdAt,value
2023-05-06T00:02:24.204Z,16.47
2023-05-06T00:04:57.130Z,16.48
2023-05-06T00:07:29.846Z,16.47
2023-05-06T00:10:02.566Z,16.46
2023-05-06T00:12:36.946Z,16.45
2023-05-06T00:15:10.232Z,16.44
2023-05-06T00:17:43.450Z,16.44
2023-05-06T00:20:16.260Z,16.44
2023-05-06T00:22:49.056Z,16.42
2023-05-06T00:25:22.037Z,16.43
2023-05-06T00:27:56.288Z,16.45
2023-05-06T00:30:29.073Z,16.49
2023-05-06T00:33:02.245Z,16.48
2023-05-06T00:35:34.946Z,16.51
2023-05-06T00:38:08.797Z,16.52
2023-05-06T00:40:42.448Z,16.53
2023-05-06T00:43:16.521Z,16.56
2023-05-06T00:45:49.558Z,16.58
2023-05-06T00:48:23.167Z,16.62
2023-05-06T00:50:55.861Z,16.65
2023-05-06T00:53:28.889Z,16.68
2023-05-06T00:56:01.618Z,16.72
2023-05-06T00:58:36.457Z,16.78
2023-05-06T01:01:09.488Z,16.82
2023-05-06T01:03:42.703Z,16.87
2023-05-06T01:06:20.634Z,16.89
2023-05-06T01:08:56.432Z,16.94
2023-05-06T01:11:31.761Z,17.00
2023-05-06T01:14:09.486Z,17.04
2023-05-06T01:16:42.826Z,17.08
2023-05-06T01:19:22.854Z,17.10
2023-05-06T01:21:56.304Z,17.11
2023-05-06T01:24:41.772Z,17.09
2023-05-06T01:27:16.701Z,17.06
2023-05-06T01:29:49.601Z,17.02
2023-05-06T01:32:29.044Z,16.94
2023-05-06T01:35:04.915Z,16.90
2023-05-06T01:37:43.338Z,16.84
2023-05-06T01:40:19.572Z,16.80
2023-05-06T01:42:52.351Z,16.76
2023-05-06T01:45:29.072Z,16.74
2023-05-06T01:48:02.287Z,16.73
2023-05-06T01:50:35.181Z,16.75
2023-05-06T01:53:08.032Z,16.76
2023-05-06T01:55:42.202Z,16.78
2023-05-06T01:58:15.098Z,16.81
2023-05-06T02:00:48.054Z,16.84
2023-05-06T02:03:21.479Z,16.89
2023-05-06T02:05:54.636Z,16.91
2023-05-06T02:08:27.951Z,16.96
2023-05-06T02:11:01.989Z,17.01
2023-05-06T02:13:34.707Z,17.05
2023-05-06T02:16:08.957Z,17.08
2023-05-06T02:18:41.879Z,17.13
2023-05-06T02:21:14.926Z,17.15
2023-05-06T02:23:47.640Z,17.19
2023-05-06T02:26:21.690Z,17.22
2023-05-06T02:28:54.363Z,17.23
2023-05-06T02:31:27.149Z,17.23
2023-05-06T02:33:59.884Z,17.25
2023-05-06T02:36:32.621Z,17.26
2023-05-06T02:39:05.902Z,17.26
2023-05-06T02:41:40.169Z,17.26
2023-05-06T02:44:12.873Z,17.29
2023-05-06T02:46:45.733Z,17.32
2023-05-06T02:49:18.671Z,17.33
2023-05-06T02:51:51.526Z,17.34
2023-05-06T02:54:24.396Z,17.37
2023-05-06T02:56:58.916Z,17.38
2023-05-06T02:59:31.721Z,17.38
2023-05-06T03:02:04.458Z,17.40
2023-05-06T03:04:37.257Z,17.39
2023-05-06T03:07:10.143Z,17.35
2023-05-06T03:09:42.852Z,17.30
2023-05-06T03:12:17.077Z,17.26
2023-05-06T03:14:49.804Z,17.22
2023-05-06T03:17:22.670Z,17.21
2023-05-06T03:19:55.534Z,17.20
2023-05-06T03:22:28.342Z,17.20
2023-05-06T03:25:01.177Z,17.23
2023-05-06T03:27:35.664Z,17.24
2023-05-06T03:30:09.624Z,17.26
2023-05-06T03:32:42.308Z,17.29
2023-05-06T03:35:15.018Z,17.31
2023-05-06T03:37:47.799Z,17.34
2023-05-06T03:40:20.667Z,17.38
2023-05-06T03:42:54.722Z,17.39
2023-05-06T03:45:28.056Z,17.42
2023-05-06T03:48:00.810Z,17.45
2023-05-06T03:50:33.559Z,17.47
2023-05-06T03:53:06.462Z,17.49
2023-05-06T03:55:39.451Z,17.51
2023-05-06T03:58:13.786Z,17.52
2023-05-06T04:00:46.728Z,17.52
2023-05-06T04:03:19.523Z,17.51
2023-05-06T04:05:52.608Z,17.49
2023-05-06T04:08:25.312Z,17.47
2023-05-06T04:10:58.367Z,17.43
2023-05-06T04:13:32.821Z,17.41
2023-05-06T04:16:05.736Z,17.38
2023-05-06T04:18:39.868Z,17.35
2023-05-06T04:21:13.050Z,17.32
2023-05-06T04:23:45.848Z,17.30
2023-05-06T04:26:18.519Z,17.30
2023-05-06T04:28:52.920Z,17.28
2023-05-06T04:31:25.679Z,17.29
2023-05-06T04:33:58.506Z,17.30
2023-05-06T04:36:31.231Z,17.30
2023-05-06T04:39:06.953Z,17.31
2023-05-06T04:41:39.857Z,17.31
2023-05-06T04:44:14.043Z,17.32
2023-05-06T04:46:47.541Z,17.33
2023-05-06T04:49:20.263Z,17.35
2023-05-06T04:51:53.022Z,17.38
2023-05-06T04:54:26.005Z,17.40
2023-05-06T04:56:58.783Z,17.41
2023-05-06T04:59:33.018Z,17.43
2023-05-06T05:02:06.426Z,17.44
2023-05-06T05:04:39.516Z,17.46
2023-05-06T05:07:12.225Z,17.45
2023-05-06T05:09:45.530Z,17.48
2023-05-06T05:12:18.195Z,17.50
2023-05-06T05:14:52.793Z,17.55
2023-05-06T05:17:25.594Z,17.59
2023-05-06T05:19:58.375Z,17.63
2023-05-06T05:22:31.055Z,17.66
2023-05-06T05:25:05.570Z,17.70
2023-05-06T05:27:39.703Z,17.73
2023-05-06T05:30:14.132Z,17.73
2023-05-06T05:32:46.853Z,17.73
2023-05-06T05:35:20.062Z,17.73
2023-05-06T05:37:52.727Z,17.73
2023-05-06T05:40:25.538Z,17.75
2023-05-06T05:42:58.297Z,17.79
2023-05-06T05:45:32.492Z,17.82
2023-05-06T05:48:05.393Z,17.88
2023-05-06T05:50:38.204Z,17.96
2023-05-06T05:53:10.895Z,18.08
2023-05-06T05:55:43.868Z,18.21
2023-05-06T05:58:16.556Z,18.35
2023-05-06T06:00:50.814Z,18.48
2023-05-06T06:03:23.660Z,18.66
2023-05-06T06:05:56.853Z,18.84
2023-05-06T06:08:29.838Z,19.02
2023-05-06T06:11:04.618Z,19.19
2023-05-06T06:13:37.265Z,19.43
2023-05-06T06:16:11.994Z,19.68
2023-05-06T06:18:44.884Z,19.96
2023-05-06T06:21:19.967Z,20.22
2023-05-06T06:23:52.635Z,20.49
2023-05-06T06:26:25.540Z,20.72
2023-05-06T06:28:58.231Z,20.99
2023-05-06T06:31:34.028Z,21.22
2023-05-06T06:34:08.981Z,21.45
2023-05-06T06:36:45.226Z,21.67
2023-05-06T06:39:19.793Z,21.86
2023-05-06T06:41:52.951Z,22.05
2023-05-06T06:44:25.626Z,22.18
2023-05-06T06:47:00.048Z,22.34
2023-05-06T06:49:32.798Z,22.47
2023-05-06T06:52:06.088Z,22.62
2023-05-06T06:54:38.826Z,22.77
2023-05-06T06:57:11.508Z,22.88
2023-05-06T06:59:44.350Z,22.99
2023-05-06T07:02:18.454Z,23.09
2023-05-06T07:04:51.188Z,23.16
2023-05-06T07:07:23.956Z,23.20
2023-05-06T07:09:58.071Z,23.22
2023-05-06T07:12:31.076Z,23.23
2023-05-06T07:15:06.832Z,23.24
2023-05-06T07:17:41.150Z,23.23
2023-05-06T07:20:14.493Z,23.23
2023-05-06T07:22:47.337Z,23.21
2023-05-06T07:25:20.184Z,23.20
2023-05-06T07:27:52.933Z,23.20
2023-05-06T07:30:26.212Z,23.22
2023-05-06T07:33:01.762Z,23.27
2023-05-06T07:35:34.692Z,23.37
2023-05-06T07:38:07.786Z,23.48
2023-05-06T07:40:41.119Z,23.61
2023-05-06T07:43:13.849Z,23.73
2023-05-06T07:45:46.614Z,23.81
2023-05-06T07:48:21.046Z,23.90
2023-05-06T07:50:53.840Z,23.96
2023-05-06T07:53:27.142Z,24.04
2023-05-06T07:56:02.259Z,24.10
2023-05-06T07:58:35.132Z,24.17
2023-05-06T08:01:10.155Z,24.24
2023-05-06T08:03:44.895Z,24.30
2023-05-06T08:06:17.749Z,24.36
2023-05-06T08:08:50.601Z,24.41
2023-05-06T08:11:23.734Z,24.50
2023-05-06T08:13:56.430Z,24.52
2023-05-06T08:16:29.317Z,24.56
2023-05-06T08:19:03.839Z,24.60
2023-05-06T08:21:36.519Z,24.62
2023-05-06T08:24:10.796Z,24.68
2023-05-06T08:26:43.504Z,24.71
2023-05-06T08:29:16.244Z,24.76
2023-05-06T08:31:49.006Z,24.84
2023-05-06T08:34:23.477Z,24.92
2023-05-06T08:36:56.867Z,24.98
2023-05-06T08:39:30.859Z,25.03
2023-05-06T08:42:04.324Z,25.08
2023-05-06T08:44:37.563Z,25.09
2023-05-06T08:47:10.648Z,25.13
2023-05-06T08:49:44.811Z,25.21
2023-05-06T08:52:17.721Z,25.26
2023-05-06T08:54:51.973Z,25.34
2023-05-06T08:57:24.707Z,25.43
2023-05-06T08:59:57.598Z,25.55
2023-05-06T09:02:30.317Z,25.65
2023-05-06T09:05:05.540Z,25.75
2023-05-06T09:07:38.281Z,25.83
2023-05-06T09:10:14.001Z,25.92
2023-05-06T09:12:46.974Z,26.02
2023-05-06T09:15:24.691Z,26.13
2023-05-06T09:17:57.537Z,26.21
2023-05-06T09:20:34.024Z,26.25
2023-05-06T09:23:08.456Z,26.30
2023-05-06T09:25:41.417Z,26.29
2023-05-06T09:28:15.329Z,26.26
2023-05-06T09:30:48.794Z,26.22
2023-05-06T09:33:22.665Z,26.16
2023-05-06T09:35:57.885Z,26.11
2023-05-06T09:38:30.880Z,26.12
2023-05-06T09:41:04.881Z,26.11
2023-05-06T09:43:37.652Z,26.10
2023-05-06T09:46:10.860Z,26.10
2023-05-06T09:48:43.679Z,26.10
2023-05-06T09:51:17.757Z,26.12
2023-05-06T09:53:50.705Z,26.16
2023-05-06T09:56:23.921Z,26.19
2023-05-06T09:58:57.049Z,26.25
2023-05-06T10:01:36.878Z,26.29
2023-05-06T10:04:11.064Z,26.35
2023-05-06T10:06:45.522Z,26.40
2023-05-06T10:09:18.785Z,26.42
2023-05-06T10:11:52.222Z,26.43
2023-05-06T10:14:24.867Z,26.41
2023-05-06T10:16:57.664Z,26.37
2023-05-06T10:19:31.041Z,26.35
2023-05-06T10:22:08.827Z,26.28
2023-05-06T10:24:46.382Z,26.24
2023-05-06T10:27:19.959Z,26.22
2023-05-06T10:29:54.352Z,26.21
2023-05-06T10:32:29.112Z,26.20
2023-05-06T10:35:06.976Z,26.20
2023-05-06T10:37:42.009Z,26.18
2023-05-06T10:40:14.995Z,26.15
2023-05-06T10:42:47.661Z,26.12
2023-05-06T10:45:20.641Z,26.08
2023-05-06T10:48:08.709Z,26.07
2023-05-06T10:50:41.755Z,26.06
2023-05-06T10:53:15.880Z,26.09
2023-05-06T10:55:48.638Z,26.10
2023-05-06T10:58:21.390Z,26.17
2023-05-06T11:00:54.539Z,26.26
2023-05-06T11:03:27.924Z,26.40
2023-05-06T11:06:00.828Z,26.52
2023-05-06T11:08:35.219Z,26.67
2023-05-06T11:11:23.056Z,26.77
2023-05-06T11:13:55.732Z,26.88
2023-05-06T11:16:52.206Z,26.96
2023-05-06T11:19:26.466Z,27.08
2023-05-06T11:21:59.838Z,27.17
2023-05-06T11:24:41.593Z,27.25
2023-05-06T11:27:19.598Z,27.31
2023-05-06T11:29:52.534Z,27.38
2023-05-06T11:32:26.502Z,27.43
2023-05-06T11:34:59.317Z,27.48
2023-05-06T11:37:32.065Z,27.55
2023-05-06T11:40:14.885Z,27.57
2023-05-06T11:42:47.571Z,27.56
2023-05-06T11:45:20.277Z,27.55
2023-05-06T11:47:55.354Z,27.55
2023-05-06T11:50:28.296Z,27.54
2023-05-06T11:53:01.070Z,27.53
2023-05-06T11:55:36.461Z,27.49
2023-05-06T11:58:13.593Z,27.48
2023-05-06T12:00:51.936Z,27.47
2023-05-06T12:03:25.819Z,27.46
2023-05-06T12:05:58.956Z,27.46
2023-05-06T12:08:33.231Z,27.46
2023-05-06T12:11:08.178Z,27.48
2023-05-06T12:13:41.093Z,27.51
2023-05-06T12:16:15.701Z,27.54
2023-05-06T12:18:48.617Z,27.57
2023-05-06T12:21:24.774Z,27.60
2023-05-06T12:23:59.395Z,27.63
2023-05-06T12:26:45.261Z,27.65
2023-05-06T12:29:18.387Z,27.64
2023-05-06T12:31:51.126Z,27.62
2023-05-06T12:34:37.135Z,27.61
2023-05-06T12:37:09.948Z,27.60
2023-05-06T12:39:42.966Z,27.58
2023-05-06T12:42:21.013Z,27.57
2023-05-06T12:44:53.729Z,27.55
2023-05-06T12:47:27.028Z,27.56
2023-05-06T12:50:00.677Z,27.57
2023-05-06T12:52:33.478Z,27.59
2023-05-06T12:55:06.780Z,27.60
2023-05-06T12:57:40.969Z,27.63
2023-05-06T13:00:14.383Z,27.67
2023-05-06T13:02:47.531Z,27.72
2023-05-06T13:05:20.393Z,27.76
2023-05-06T13:07:54.036Z,27.83
2023-05-06T13:10:26.847Z,27.88
2023-05-06T13:13:00.923Z,27.96
2023-05-06T13:15:33.734Z,28.03
2023-05-06T13:18:07.068Z,28.11
2023-05-06T13:20:39.933Z,28.19
2023-05-06T13:23:12.709Z,28.28
2023-05-06T13:26:00.384Z,28.39
2023-05-06T13:28:39.427Z,28.49
2023-05-06T13:31:12.200Z,28.59
2023-05-06T13:33:45.006Z,28.68
2023-05-06T13:36:17.663Z,28.72
2023-05-06T13:38:50.523Z,28.74
2023-05-06T13:41:25.372Z,28.73
2023-05-06T13:43:59.514Z,28.70
2023-05-06T13:46:32.199Z,28.64
2023-05-06T13:49:04.892Z,28.57
2023-05-06T13:51:37.575Z,28.50
2023-05-06T13:54:10.418Z,28.42
2023-05-06T13:56:43.010Z,28.30
2023-05-06T13:59:17.195Z,28.20
2023-05-06T14:01:53.601Z,28.09
2023-05-06T14:04:26.468Z,27.96
2023-05-06T14:06:59.277Z,27.88
2023-05-06T14:09:32.473Z,27.81
2023-05-06T14:12:05.879Z,27.77
2023-05-06T14:14:40.025Z,27.76
2023-05-06T14:17:12.742Z,27.72
2023-05-06T14:19:46.006Z,27.69
2023-05-06T14:22:18.807Z,27.65
2023-05-06T14:24:51.530Z,27.62
2023-05-06T14:27:24.244Z,27.60
2023-05-06T14:29:58.426Z,27.57
2023-05-06T14:32:31.144Z,27.57
2023-05-06T14:35:03.881Z,27.56
2023-05-06T14:37:36.613Z,27.57
2023-05-06T14:40:10.461Z,27.59
2023-05-06T14:42:43.448Z,27.59
2023-05-06T14:45:17.549Z,27.60
2023-05-06T14:47:50.326Z,27.60
2023-05-06T14:50:23.102Z,27.58
2023-05-06T14:52:55.982Z,27.56
2023-05-06T14:55:28.986Z,27.56
2023-05-06T14:58:01.925Z,27.54
2023-05-06T15:00:36.185Z,27.52
2023-05-06T15:03:08.981Z,27.51
2023-05-06T15:05:41.815Z,27.47
2023-05-06T15:08:14.528Z,27.42
2023-05-06T15:10:49.130Z,27.40
2023-05-06T15:13:21.897Z,27.39
2023-05-06T15:15:56.300Z,27.38
2023-05-06T15:18:28.968Z,27.37
2023-05-06T15:21:02.055Z,27.39
2023-05-06T15:23:34.779Z,27.40
2023-05-06T15:26:07.532Z,27.44
2023-05-06T15:28:40.209Z,27.47
2023-05-06T15:31:14.443Z,27.50
2023-05-06T15:33:47.100Z,27.52
2023-05-06T15:36:19.838Z,27.55
2023-05-06T15:38:59.661Z,27.55
2023-05-06T15:41:33.753Z,27.56
2023-05-06T15:44:06.751Z,27.53
2023-05-06T15:46:41.324Z,27.52
2023-05-06T15:49:45.349Z,27.48
2023-05-06T15:52:06.778Z,27.44
2023-05-06T15:54:41.107Z,27.40
2023-05-06T15:57:14.825Z,27.35
2023-05-06T15:59:47.611Z,27.32
2023-05-06T16:04:57.377Z,27.27
2023-05-06T16:07:30.231Z,27.24
2023-05-06T16:10:03.209Z,27.21
2023-05-06T16:12:35.901Z,27.17
2023-05-06T16:15:09.242Z,27.13
2023-05-06T16:17:43.428Z,27.10
2023-05-06T16:20:16.278Z,27.04
2023-05-06T16:22:50.785Z,27.00
2023-05-06T16:25:23.801Z,26.97
2023-05-06T16:27:56.631Z,26.92
2023-05-06T16:30:29.810Z,26.90
2023-05-06T16:33:04.242Z,26.85
2023-05-06T16:35:36.930Z,26.81
2023-05-06T16:38:09.823Z,26.75
2023-05-06T16:40:43.475Z,26.71
2023-05-06T16:43:16.350Z,26.66
2023-05-06T16:45:49.140Z,26.61
2023-05-06T16:48:23.672Z,26.56
2023-05-06T16:50:56.446Z,26.51
2023-05-06T16:53:29.564Z,26.45
2023-05-06T16:56:03.083Z,26.39
2023-05-06T16:58:35.917Z,26.35
2023-05-06T17:01:08.907Z,26.30
2023-05-06T17:03:43.061Z,26.25
2023-05-06T17:06:15.860Z,26.20
2023-05-06T17:08:48.740Z,26.15
2023-05-06T17:11:21.722Z,26.09
2023-05-06T17:13:54.757Z,26.04
2023-05-06T17:16:27.485Z,25.99
2023-05-06T17:19:02.345Z,25.93
2023-05-06T17:21:35.105Z,25.86
2023-05-06T17:24:08.649Z,25.80
2023-05-06T17:26:41.773Z,25.74
2023-05-06T17:29:14.498Z,25.67
2023-05-06T17:31:47.230Z,25.61
2023-05-06T17:36:55.952Z,25.46
2023-05-06T17:39:28.723Z,25.38
2023-05-06T17:42:01.795Z,25.32
2023-05-06T17:44:35.404Z,25.25
2023-05-06T17:47:07.998Z,25.15
2023-05-06T17:49:42.078Z,25.08
2023-05-06T17:52:14.894Z,24.99
2023-05-06T17:54:56.946Z,24.92
2023-05-06T17:57:38.689Z,24.82
2023-05-06T18:00:11.853Z,24.72
2023-05-06T18:02:44.839Z,24.65
2023-05-06T18:05:19.036Z,24.56
2023-05-06T18:07:51.824Z,24.47
2023-05-06T18:10:24.597Z,24.39
2023-05-06T18:12:57.749Z,24.30
2023-05-06T18:15:30.669Z,24.21
2023-05-06T18:18:03.428Z,24.11
2023-05-06T18:20:37.508Z,24.02
2023-05-06T18:23:10.166Z,23.92
2023-05-06T18:25:42.917Z,23.81
2023-05-06T18:28:16.416Z,23.71
2023-05-06T18:30:49.133Z,23.60
2023-05-06T18:33:21.964Z,23.49
2023-05-06T18:35:56.366Z,23.38
2023-05-06T18:38:29.577Z,23.28
2023-05-06T18:41:03.274Z,23.15
2023-05-06T18:43:36.053Z,23.03
2023-05-06T18:46:08.941Z,22.92
2023-05-06T18:48:41.780Z,22.79
2023-05-06T18:51:17.232Z,22.67
2023-05-06T18:53:50.031Z,22.54
2023-05-06T18:56:22.813Z,22.41
2023-05-06T18:58:55.546Z,22.29
2023-05-06T19:01:28.388Z,22.16
2023-05-06T19:04:01.483Z,22.04
2023-05-06T19:06:38.496Z,21.93
2023-05-06T19:09:11.375Z,21.80
2023-05-06T19:11:44.189Z,21.69
2023-05-06T19:14:16.926Z,21.58
2023-05-06T19:16:50.110Z,21.48
2023-05-06T19:19:22.897Z,21.39
2023-05-06T19:21:57.513Z,21.28
2023-05-06T19:24:31.310Z,21.18
2023-05-06T19:27:04.043Z,21.08
2023-05-06T19:29:36.822Z,20.99
2023-05-06T19:32:09.809Z,20.91
2023-05-06T19:34:42.468Z,20.83
2023-05-06T19:37:16.580Z,20.77
2023-05-06T19:39:49.597Z,20.70
2023-05-06T19:42:22.304Z,20.66
2023-05-06T19:44:55.043Z,20.60
2023-05-06T19:47:30.732Z,20.54
2023-05-06T19:50:03.454Z,20.48
2023-05-06T19:52:37.716Z,20.44
2023-05-06T19:55:11.245Z,20.39
2023-05-06T19:57:44.060Z,20.34
2023-05-06T20:00:18.445Z,20.28
2023-05-06T20:02:51.394Z,20.23
2023-05-06T20:05:24.281Z,20.18
2023-05-06T20:07:59.699Z,20.15
2023-05-06T20:10:32.330Z,20.09
2023-05-06T20:13:05.219Z,20.03
2023-05-06T20:15:38.006Z,19.98
2023-05-06T20:18:10.781Z,19.92
2023-05-06T20:20:43.570Z,19.86
2023-05-06T20:23:17.613Z,19.80
2023-05-06T20:25:50.356Z,19.75
2023-05-06T20:28:23.557Z,19.72
2023-05-06T20:30:59.667Z,19.66
2023-05-06T20:33:32.458Z,19.59
2023-05-06T20:36:05.949Z,19.54
2023-05-06T20:38:40.652Z,19.49
2023-05-06T20:41:13.689Z,19.43
2023-05-06T20:43:46.420Z,19.37
2023-05-06T20:46:20.551Z,19.31
2023-05-06T20:48:53.409Z,19.23
2023-05-06T20:51:26.233Z,19.17
2023-05-06T20:54:01.176Z,19.12
2023-05-06T20:56:33.948Z,19.06
2023-05-06T20:59:07.076Z,19.00
2023-05-06T21:01:39.943Z,18.96
2023-05-06T21:04:12.788Z,18.92
2023-05-06T21:06:45.587Z,18.87
2023-05-06T21:09:19.771Z,18.81
2023-05-06T21:11:52.521Z,18.77
2023-05-06T21:14:27.377Z,18.70
2023-05-06T21:17:00.188Z,18.66
2023-05-06T21:19:33.317Z,18.61
2023-05-06T21:22:09.956Z,18.56
2023-05-06T21:24:44.234Z,18.52
2023-05-06T21:27:16.976Z,18.46
2023-05-06T21:29:49.786Z,18.41
2023-05-06T21:32:22.693Z,18.35
2023-05-06T21:34:55.474Z,18.32
2023-05-06T21:37:28.221Z,18.27
2023-05-06T21:40:04.444Z,18.21
2023-05-06T21:42:37.183Z,18.16
2023-05-06T21:45:11.506Z,18.12
2023-05-06T21:47:45.206Z,18.05
2023-05-06T21:50:18.097Z,18.03
2023-05-06T21:52:50.742Z,17.97
2023-05-06T21:55:27.773Z,17.94
2023-05-06T21:58:00.542Z,17.89
2023-05-06T22:00:33.446Z,17.86
2023-05-06T22:03:06.398Z,17.83
2023-05-06T22:05:40.098Z,17.80
2023-05-06T22:08:12.835Z,17.76
2023-05-06T22:10:47.068Z,17.71
2023-05-06T22:13:20.934Z,17.68
2023-05-06T22:15:55.909Z,17.64
2023-05-06T22:18:30.138Z,17.61
2023-05-06T22:21:03.399Z,17.59
2023-05-06T22:23:36.309Z,17.56
2023-05-06T22:26:10.515Z,17.53
2023-05-06T22:28:43.166Z,17.50
2023-05-06T22:31:16.018Z,17.47
2023-05-06T22:33:52.196Z,17.45
2023-05-06T22:36:26.886Z,17.40
2023-05-06T22:38:59.635Z,17.38
2023-05-06T22:41:33.815Z,17.35
2023-05-06T22:44:06.570Z,17.31
2023-05-06T22:46:39.417Z,17.28
2023-05-06T22:49:12.129Z,17.24
2023-05-06T22:51:44.928Z,17.21
2023-05-06T22:54:17.588Z,17.18
2023-05-06T22:56:51.815Z,17.14
2023-05-06T22:59:24.608Z,17.12
2023-05-06T23:01:57.505Z,17.10
2023-05-06T23:04:30.296Z,17.07
2023-05-06T23:07:03.003Z,17.04
2023-05-06T23:09:35.685Z,17.02
2023-05-06T23:12:09.856Z,17.01
2023-05-06T23:14:42.614Z,16.96
2023-05-06T23:17:15.346Z,16.94
2023-05-06T23:19:48.097Z,16.94
2023-05-06T23:22:20.931Z,16.91
2023-05-06T23:24:53.701Z,16.88
2023-05-06T23:27:27.823Z,16.86
2023-05-06T23:30:00.540Z,16.83
2023-05-06T23:32:33.445Z,16.82
2023-05-06T23:35:07.783Z,16.78
2023-05-06T23:37:40.689Z,16.78
2023-05-06T23:40:14.203Z,16.76
2023-05-06T23:42:48.314Z,16.74
2023-05-06T23:45:21.043Z,16.72
2023-05-06T23:47:54.031Z,16.69
2023-05-06T23:50:26.864Z,16.69
2023-05-06T23:52:59.688Z,16.67
2023-05-06T23:55:32.488Z,16.66
2023-05-06T23:58:06.644Z,16.66
